createdAt,value
2022-09-22T00:01:31.277Z,4.20
2022-09-22T00:04:03.597Z,4.10
2022-09-22T00:06:47.299Z,4.10
2022-09-22T00:09:18.868Z,4.00
2022-09-22T00:11:51.708Z,4.00
2022-09-22T00:14:24.455Z,4.00
2022-09-22T00:16:57.956Z,3.90
2022-09-22T00:19:32.443Z,3.90
2022-09-22T00:21:59.943Z,3.90
2022-09-22T00:24:28.170Z,3.90
2022-09-22T00:26:57.746Z,3.80
2022-09-22T00:29:27.476Z,3.80
2022-09-22T00:31:56.614Z,3.70
2022-09-22T00:34:26.683Z,3.70
2022-09-22T00:36:54.010Z,3.70
2022-09-22T00:39:21.772Z,3.70
2022-09-22T00:41:52.337Z,3.70
2022-09-22T00:44:34.282Z,3.70
2022-09-22T00:47:41.189Z,3.70
2022-09-22T00:50:10.769Z,3.60
2022-09-22T00:52:50.957Z,3.60
2022-09-22T00:55:30.096Z,3.50
2022-09-22T00:57:59.351Z,3.50
2022-09-22T01:00:26.254Z,3.50
2022-09-22T01:02:59.089Z,3.50
2022-09-22T01:05:29.297Z,3.50
2022-09-22T01:07:56.171Z,3.40
2022-09-22T01:10:24.194Z,3.40
2022-09-22T01:13:26.569Z,3.40
2022-09-22T01:16:11.750Z,3.40
2022-09-22T01:18:54.454Z,3.40
2022-09-22T01:21:46.184Z,3.40
2022-09-22T01:25:02.563Z,3.30
2022-09-22T01:27:53.682Z,3.30
2022-09-22T01:30:37.646Z,3.30
2022-09-22T01:33:41.963Z,3.20
2022-09-22T01:36:21.150Z,3.20
2022-09-22T01:39:04.228Z,3.20
2022-09-22T01:41:59.043Z,3.10
2022-09-22T01:44:37.953Z,3.10
2022-09-22T01:47:53.605Z,3.10
2022-09-22T01:50:33.032Z,3.10
2022-09-22T01:53:07.294Z,3.00
2022-09-22T01:55:39.628Z,3.10
2022-09-22T01:58:12.713Z,3.00
2022-09-22T02:00:47.299Z,3.00
2022-09-22T02:03:33.698Z,2.90
2022-09-22T02:06:13.942Z,2.90
2022-09-22T02:08:53.757Z,2.90
2022-09-22T02:11:23.119Z,2.80
2022-09-22T02:13:50.225Z,2.80
2022-09-22T02:16:21.456Z,2.80
2022-09-22T02:18:55.994Z,2.80
2022-09-22T02:21:28.002Z,2.70
2022-09-22T02:23:55.556Z,2.70
2022-09-22T02:26:30.218Z,2.70
2022-09-22T02:29:10.945Z,2.70
2022-09-22T02:31:39.948Z,2.60
2022-09-22T02:34:08.764Z,2.60
2022-09-22T02:37:00.738Z,2.60
2022-09-22T02:39:49.710Z,2.60
2022-09-22T02:42:27.896Z,2.50
2022-09-22T02:45:17.331Z,2.50
2022-09-22T02:48:09.032Z,2.50
2022-09-22T02:50:36.488Z,2.50
2022-09-22T02:53:12.668Z,2.40
2022-09-22T02:55:41.048Z,2.40
2022-09-22T02:58:07.795Z,2.40
2022-09-22T03:00:34.695Z,2.40
2022-09-22T03:03:01.430Z,2.40
2022-09-22T03:05:28.292Z,2.40
2022-09-22T03:07:55.225Z,2.40
2022-09-22T03:10:22.259Z,2.30
2022-09-22T03:13:14.333Z,2.40
2022-09-22T03:15:35.849Z,2.40
2022-09-22T03:18:02.979Z,2.30
2022-09-22T03:20:29.770Z,2.30
2022-09-22T03:22:56.551Z,2.30
2022-09-22T03:25:23.424Z,2.30
2022-09-22T03:27:50.256Z,2.30
2022-09-22T03:30:17.050Z,2.20
2022-09-22T03:32:44.177Z,2.20
2022-09-22T03:35:11.006Z,2.10
2022-09-22T03:37:37.856Z,2.10
2022-09-22T03:40:05.386Z,2.10
2022-09-22T03:42:34.698Z,2.10
2022-09-22T03:45:03.111Z,2.10
2022-09-22T03:47:30.034Z,2.00
2022-09-22T03:49:56.862Z,2.00
2022-09-22T03:52:24.081Z,2.10
2022-09-22T03:54:52.119Z,2.00
2022-09-22T03:57:18.855Z,1.90
2022-09-22T03:59:45.781Z,1.90
2022-09-22T04:02:13.901Z,1.90
2022-09-22T04:04:40.690Z,1.90
2022-09-22T04:07:07.745Z,1.90
2022-09-22T04:09:35.245Z,1.80
2022-09-22T04:12:02.334Z,1.80
2022-09-22T04:14:29.406Z,1.80
2022-09-22T04:16:56.657Z,1.80
2022-09-22T04:19:23.755Z,1.80
2022-09-22T04:21:56.194Z,1.80
2022-09-22T04:24:24.447Z,1.80
2022-09-22T04:27:18.051Z,1.80
2022-09-22T04:29:38.489Z,1.70
2022-09-22T04:32:05.762Z,1.70
2022-09-22T04:34:32.716Z,1.70
2022-09-22T04:36:59.604Z,1.70
2022-09-22T04:39:28.548Z,1.70
2022-09-22T04:41:55.569Z,1.60
2022-09-22T04:44:22.571Z,1.60
2022-09-22T04:46:50.185Z,1.60
2022-09-22T04:49:18.242Z,1.60
2022-09-22T04:51:45.342Z,1.60
2022-09-22T04:54:13.448Z,1.60
2022-09-22T04:56:42.133Z,1.60
2022-09-22T04:59:09.578Z,1.60
2022-09-22T05:01:36.589Z,1.60
2022-09-22T05:04:03.873Z,1.60
2022-09-22T05:06:31.148Z,1.60
2022-09-22T05:08:58.570Z,1.50
2022-09-22T05:11:25.537Z,1.50
2022-09-22T05:13:52.309Z,1.50
2022-09-22T05:16:19.498Z,1.50
2022-09-22T05:18:46.482Z,1.60
2022-09-22T05:21:13.302Z,1.50
2022-09-22T05:23:40.079Z,1.50
2022-09-22T05:26:07.006Z,1.50
2022-09-22T05:28:33.948Z,1.50
2022-09-22T05:31:00.960Z,1.50
2022-09-22T05:33:27.743Z,1.50
2022-09-22T05:35:54.598Z,1.60
2022-09-22T05:38:21.374Z,1.60
2022-09-22T05:40:48.403Z,1.60
2022-09-22T05:43:15.939Z,1.60
2022-09-22T05:45:44.625Z,1.70
2022-09-22T05:48:11.527Z,1.70
2022-09-22T05:50:38.390Z,1.70
2022-09-22T05:53:08.711Z,1.80
2022-09-22T05:55:36.362Z,1.90
2022-09-22T05:58:03.533Z,1.90
2022-09-22T06:00:31.422Z,2.00
2022-09-22T06:02:58.387Z,2.20
2022-09-22T06:05:25.210Z,2.70
2022-09-22T06:08:05.101Z,3.60
2022-09-22T06:10:34.750Z,4.60
2022-09-22T06:13:07.918Z,5.70
2022-09-22T06:15:36.214Z,6.70
2022-09-22T06:18:07.270Z,7.70
2022-09-22T06:20:35.832Z,8.70
2022-09-22T06:23:02.802Z,9.70
2022-09-22T06:25:30.119Z,10.80
2022-09-22T06:28:04.808Z,11.70
2022-09-22T06:30:40.095Z,12.50
2022-09-22T06:33:08.748Z,13.20
2022-09-22T06:35:37.607Z,14.00
2022-09-22T06:38:06.709Z,14.90
2022-09-22T06:40:36.425Z,15.60
2022-09-22T06:43:11.731Z,16.40
2022-09-22T06:45:39.908Z,17.00
2022-09-22T06:48:10.243Z,17.60
2022-09-22T06:50:38.772Z,18.00
2022-09-22T06:53:08.341Z,18.50
2022-09-22T06:55:41.499Z,19.00
2022-09-22T06:58:10.443Z,19.40
2022-09-22T07:00:37.453Z,19.90
2022-09-22T07:03:20.747Z,20.30
2022-09-22T07:06:01.240Z,20.60
2022-09-22T07:08:33.932Z,21.00
2022-09-22T07:11:09.033Z,21.40
2022-09-22T07:13:39.999Z,21.80
2022-09-22T07:16:12.809Z,22.30
2022-09-22T07:18:42.641Z,22.40
2022-09-22T07:21:13.460Z,22.30
2022-09-22T07:23:41.194Z,22.50
2022-09-22T07:26:15.819Z,22.60
2022-09-22T07:28:44.769Z,22.80
2022-09-22T07:31:14.544Z,23.00
2022-09-22T07:33:44.146Z,23.00
2022-09-22T07:36:15.954Z,23.20
2022-09-22T07:38:46.626Z,23.50
2022-09-22T07:41:27.519Z,23.70
2022-09-22T07:43:57.791Z,23.80
2022-09-22T07:46:24.719Z,24.00
2022-09-22T07:48:51.576Z,24.20
2022-09-22T07:51:22.371Z,24.60
2022-09-22T07:54:09.585Z,24.80
2022-09-22T07:56:43.642Z,25.20
2022-09-22T07:59:13.616Z,25.70
2022-09-22T08:01:44.527Z,26.00
2022-09-22T08:04:15.594Z,26.30
2022-09-22T08:06:48.626Z,26.50
2022-09-22T08:09:15.858Z,26.60
2022-09-22T08:11:45.916Z,26.90
2022-09-22T08:14:13.140Z,27.10
2022-09-22T08:16:40.904Z,27.40
2022-09-22T08:19:12.553Z,27.50
2022-09-22T08:21:49.517Z,27.80
2022-09-22T08:24:21.899Z,28.10
2022-09-22T08:26:51.981Z,28.30
2022-09-22T08:29:19.203Z,28.50
2022-09-22T08:31:46.861Z,28.70
2022-09-22T08:34:16.594Z,28.40
2022-09-22T08:36:47.163Z,28.20
2022-09-22T08:39:15.648Z,28.00
2022-09-22T08:42:00.304Z,28.10
2022-09-22T08:44:39.410Z,28.00
2022-09-22T08:47:06.521Z,28.10
2022-09-22T08:50:08.941Z,28.20
2022-09-22T08:52:38.931Z,28.30
2022-09-22T08:55:17.537Z,28.00
2022-09-22T08:58:09.041Z,27.80
2022-09-22T09:01:40.670Z,27.50
2022-09-22T09:05:00.046Z,27.50
2022-09-22T09:08:02.381Z,27.70
2022-09-22T09:11:28.807Z,27.70
2022-09-22T09:14:27.617Z,27.70
2022-09-22T09:17:26.511Z,27.70
2022-09-22T09:20:46.660Z,27.80
2022-09-22T09:23:21.281Z,28.30
2022-09-22T09:25:55.899Z,29.00
2022-09-22T09:28:55.135Z,29.20
2022-09-22T09:31:48.695Z,28.80
2022-09-22T09:34:18.708Z,28.20
2022-09-22T09:36:58.186Z,28.10
2022-09-22T09:39:33.202Z,28.10
2022-09-22T09:42:06.866Z,28.30
2022-09-22T09:44:39.951Z,28.10
2022-09-22T09:47:26.112Z,27.00
2022-09-22T09:49:54.297Z,26.10
2022-09-22T09:52:25.725Z,24.90
2022-09-22T09:54:53.976Z,23.60
2022-09-22T09:57:27.625Z,22.70
2022-09-22T10:00:33.219Z,22.10
2022-09-22T10:03:02.783Z,21.30
2022-09-22T10:05:32.366Z,21.70
2022-09-22T10:08:16.421Z,22.80
2022-09-22T10:10:43.520Z,24.00
2022-09-22T10:13:11.728Z,24.00
2022-09-22T10:15:43.271Z,24.20
2022-09-22T10:18:40.761Z,25.20
2022-09-22T10:21:24.824Z,26.30
2022-09-22T10:23:54.992Z,26.60
2022-09-22T10:26:31.670Z,26.50
2022-09-22T10:29:18.493Z,26.70
2022-09-22T10:32:12.595Z,26.70
2022-09-22T10:34:51.023Z,26.90
2022-09-22T10:37:30.498Z,26.20
2022-09-22T10:40:03.450Z,26.40
2022-09-22T10:42:46.155Z,26.70
2022-09-22T10:45:19.165Z,26.90
2022-09-22T10:48:26.648Z,26.60
2022-09-22T10:51:12.520Z,26.20
2022-09-22T10:54:17.818Z,26.30
2022-09-22T10:56:57.203Z,25.80
2022-09-22T10:59:57.828Z,24.60
2022-09-22T11:02:58.312Z,23.80
2022-09-22T11:06:36.831Z,22.70
2022-09-22T11:09:43.326Z,21.20
2022-09-22T11:12:49.503Z,20.60
2022-09-22T11:16:13.340Z,20.00
2022-09-22T11:18:49.237Z,19.90
2022-09-22T11:22:04.048Z,20.10
2022-09-22T11:24:53.520Z,19.80
2022-09-22T11:27:51.577Z,19.40
2022-09-22T11:30:22.937Z,19.20
2022-09-22T11:33:05.727Z,19.30
2022-09-22T11:35:49.165Z,19.20
2022-09-22T11:38:50.446Z,19.20
2022-09-22T11:41:29.702Z,19.20
2022-09-22T11:44:32.180Z,19.40
2022-09-22T11:47:41.452Z,19.30
2022-09-22T11:50:44.027Z,18.90
2022-09-22T11:53:41.529Z,18.40
2022-09-22T11:56:38.757Z,18.30
2022-09-22T12:00:02.420Z,18.50
2022-09-22T12:02:41.435Z,18.80
2022-09-22T12:05:26.999Z,18.80
2022-09-22T12:08:01.721Z,19.00
2022-09-22T12:10:38.515Z,19.00
2022-09-22T12:13:16.187Z,19.00
2022-09-22T12:16:12.232Z,18.80
2022-09-22T12:18:54.766Z,18.40
2022-09-22T12:21:53.353Z,17.90
2022-09-22T12:24:20.467Z,17.70
2022-09-22T12:26:49.777Z,17.50
2022-09-22T12:29:16.468Z,17.30
2022-09-22T12:31:49.553Z,17.30
2022-09-22T12:34:25.146Z,17.30
2022-09-22T12:36:56.804Z,17.70
2022-09-22T12:39:28.915Z,17.90
2022-09-22T12:42:04.568Z,17.90
2022-09-22T12:44:45.906Z,17.80
2022-09-22T12:47:34.474Z,17.90
2022-09-22T12:50:07.131Z,17.90
2022-09-22T12:53:03.778Z,18.00
2022-09-22T12:55:39.093Z,18.20
2022-09-22T12:58:28.653Z,18.30
2022-09-22T13:01:27.161Z,18.10
2022-09-22T13:04:13.515Z,18.00
2022-09-22T13:06:40.267Z,17.80
2022-09-22T13:09:09.522Z,17.50
2022-09-22T13:12:11.558Z,17.60
2022-09-22T13:15:11.113Z,18.00
2022-09-22T13:17:42.424Z,18.20
2022-09-22T13:20:29.505Z,18.50
2022-09-22T13:23:14.266Z,18.50
2022-09-22T13:25:44.441Z,18.20
2022-09-22T13:28:22.972Z,18.30
2022-09-22T13:31:15.259Z,18.60
2022-09-22T13:33:43.120Z,18.90
2022-09-22T13:36:16.074Z,18.90
2022-09-22T13:38:50.796Z,19.00
2022-09-22T13:41:25.450Z,19.00
2022-09-22T13:44:03.648Z,19.20
2022-09-22T13:46:42.162Z,19.20
2022-09-22T13:49:13.435Z,19.40
2022-09-22T13:51:40.435Z,19.60
2022-09-22T13:54:09.410Z,19.70
2022-09-22T13:56:37.857Z,19.70
2022-09-22T13:59:05.562Z,19.60
2022-09-22T14:01:32.534Z,19.60
2022-09-22T14:03:59.525Z,19.70
2022-09-22T14:06:31.348Z,19.70
2022-09-22T14:09:01.529Z,19.80
2022-09-22T14:11:33.112Z,20.00
2022-09-22T14:14:02.654Z,19.90
2022-09-22T14:16:59.717Z,20.00
2022-09-22T14:19:34.210Z,19.80
2022-09-22T14:22:05.281Z,19.70
2022-09-22T14:24:37.015Z,19.70
2022-09-22T14:27:07.284Z,19.60
2022-09-22T14:29:49.602Z,19.40
2022-09-22T14:32:53.067Z,19.40
2022-09-22T14:35:31.731Z,19.30
2022-09-22T14:38:13.654Z,19.50
2022-09-22T14:40:54.647Z,19.60
2022-09-22T14:43:27.496Z,19.80
2022-09-22T14:46:08.741Z,19.80
2022-09-22T14:48:36.566Z,19.60
2022-09-22T14:51:20.318Z,19.30
2022-09-22T14:53:55.336Z,19.00
2022-09-22T14:56:34.121Z,18.70
2022-09-22T14:59:26.253Z,18.50
2022-09-22T15:02:14.075Z,18.30
2022-09-22T15:04:50.905Z,18.00
2022-09-22T15:07:31.272Z,17.80
2022-09-22T15:10:03.136Z,17.60
2022-09-22T15:12:39.830Z,17.30
2022-09-22T15:15:31.783Z,17.00
2022-09-22T15:18:19.411Z,16.90
2022-09-22T15:20:58.781Z,16.70
2022-09-22T15:23:41.250Z,16.40
2022-09-22T15:26:27.210Z,16.30
2022-09-22T15:28:56.322Z,16.10
2022-09-22T15:31:29.616Z,15.90
2022-09-22T15:34:01.404Z,15.80
2022-09-22T15:36:34.271Z,15.80
2022-09-22T15:39:11.851Z,15.70
2022-09-22T15:41:38.623Z,15.60
2022-09-22T15:44:05.603Z,15.50
2022-09-22T15:46:37.765Z,15.40
2022-09-22T15:49:22.389Z,15.30
2022-09-22T15:51:49.704Z,15.20
2022-09-22T15:54:19.913Z,15.20
2022-09-22T15:56:50.887Z,15.10
2022-09-22T15:59:22.239Z,15.10
2022-09-22T16:01:51.726Z,15.10
2022-09-22T16:04:20.044Z,15.00
2022-09-22T16:06:54.581Z,15.00
2022-09-22T16:09:21.415Z,14.90
2022-09-22T16:11:48.566Z,14.90
2022-09-22T16:14:15.481Z,14.90
2022-09-22T16:16:42.937Z,14.90
2022-09-22T16:19:10.422Z,14.90
2022-09-22T16:21:43.379Z,14.80
2022-09-22T16:24:11.683Z,14.80
2022-09-22T16:26:40.411Z,14.70
2022-09-22T16:29:08.710Z,14.70
2022-09-22T16:31:37.262Z,14.60
2022-09-22T16:34:06.762Z,14.50
2022-09-22T16:36:36.078Z,14.40
2022-09-22T16:39:04.173Z,14.40
2022-09-22T16:41:33.669Z,14.30
2022-09-22T16:44:01.933Z,14.30
2022-09-22T16:46:30.701Z,14.20
2022-09-22T16:49:09.844Z,14.10
2022-09-22T16:51:40.883Z,14.00
2022-09-22T16:54:13.118Z,13.90
2022-09-22T16:56:43.402Z,13.80
2022-09-22T16:59:13.246Z,13.80
2022-09-22T17:01:40.006Z,13.70
2022-09-22T17:04:08.445Z,13.60
2022-09-22T17:06:38.256Z,13.50
2022-09-22T17:09:06.917Z,13.40
2022-09-22T17:11:43.782Z,13.30
2022-09-22T17:14:16.112Z,13.20
2022-09-22T17:16:51.747Z,13.10
2022-09-22T17:19:26.122Z,13.00
2022-09-22T17:21:55.642Z,13.00
2022-09-22T17:24:24.639Z,12.80
2022-09-22T17:26:57.772Z,12.80
2022-09-22T17:29:28.300Z,12.50
2022-09-22T17:31:59.657Z,12.50
2022-09-22T17:34:31.479Z,12.30
2022-09-22T17:36:59.330Z,12.20
2022-09-22T17:39:28.684Z,12.10
2022-09-22T17:41:55.505Z,12.00
2022-09-22T17:44:23.570Z,11.80
2022-09-22T17:47:11.188Z,11.70
2022-09-22T17:49:58.187Z,11.60
2022-09-22T17:52:28.396Z,11.40
2022-09-22T17:55:07.982Z,11.20
2022-09-22T17:57:41.701Z,11.10
2022-09-22T18:00:21.959Z,10.90
2022-09-22T18:02:52.670Z,10.80
2022-09-22T18:05:25.381Z,10.70
2022-09-22T18:07:57.626Z,10.60
2022-09-22T18:10:32.044Z,10.50
2022-09-22T18:12:59.700Z,10.40
2022-09-22T18:15:27.841Z,10.30
2022-09-22T18:17:57.687Z,10.20
2022-09-22T18:20:26.109Z,10.10
2022-09-22T18:22:54.183Z,10.00
2022-09-22T18:25:23.876Z,9.80
2022-09-22T18:27:53.176Z,9.80
2022-09-22T18:30:19.984Z,9.70
2022-09-22T18:32:47.941Z,9.60
2022-09-22T18:35:15.490Z,9.40
2022-09-22T18:37:42.460Z,9.40
2022-09-22T18:40:12.151Z,9.30
2022-09-22T18:42:39.277Z,9.20
2022-09-22T18:45:06.799Z,9.10
2022-09-22T18:47:39.585Z,9.10
2022-09-22T18:50:07.195Z,9.00
2022-09-22T18:52:34.548Z,8.90
2022-09-22T18:55:04.627Z,8.90
2022-09-22T18:57:31.390Z,8.80
2022-09-22T19:00:00.261Z,8.80
2022-09-22T19:02:27.284Z,8.60
2022-09-22T19:04:54.224Z,8.50
2022-09-22T19:07:42.381Z,8.40
2022-09-22T19:10:21.571Z,8.40
2022-09-22T19:12:49.518Z,8.30
2022-09-22T19:15:18.844Z,8.20
2022-09-22T19:17:49.428Z,8.20
2022-09-22T19:20:22.356Z,8.10
2022-09-22T19:22:50.514Z,8.00
2022-09-22T19:25:18.340Z,8.00
2022-09-22T19:27:45.238Z,8.00
2022-09-22T19:30:12.892Z,7.90
2022-09-22T19:32:40.553Z,7.80
2022-09-22T19:35:09.231Z,7.70
2022-09-22T19:37:36.351Z,7.60
2022-09-22T19:40:08.483Z,7.50
2022-09-22T19:42:40.415Z,7.50
2022-09-22T19:45:09.556Z,7.50
2022-09-22T19:47:37.035Z,7.40
2022-09-22T19:50:05.215Z,7.40
2022-09-22T19:52:31.936Z,7.40
2022-09-22T19:54:58.878Z,7.40
2022-09-22T19:57:25.680Z,7.30
2022-09-22T19:59:52.635Z,7.30
2022-09-22T20:02:20.740Z,7.30
2022-09-22T20:04:47.524Z,7.20
2022-09-22T20:07:14.416Z,7.10
2022-09-22T20:09:41.813Z,7.10
2022-09-22T20:12:08.580Z,7.00
2022-09-22T20:14:35.342Z,7.00
2022-09-22T20:17:08.391Z,7.00
2022-09-22T20:19:38.432Z,6.90
2022-09-22T20:22:19.691Z,6.90
2022-09-22T20:24:54.654Z,6.80
2022-09-22T20:27:34.679Z,6.80
2022-09-22T20:30:01.968Z,6.70
2022-09-22T20:32:34.538Z,6.70
2022-09-22T20:35:02.123Z,6.60
2022-09-22T20:37:31.842Z,6.60
2022-09-22T20:39:58.592Z,6.50
2022-09-22T20:42:25.326Z,6.50
2022-09-22T20:44:52.130Z,6.50
2022-09-22T20:47:25.397Z,6.50
2022-09-22T20:49:52.236Z,6.40
2022-09-22T20:52:20.743Z,6.40
2022-09-22T20:54:48.147Z,6.30
2022-09-22T20:57:15.168Z,6.30
2022-09-22T20:59:45.428Z,6.30
2022-09-22T21:02:13.928Z,6.20
2022-09-22T21:04:41.229Z,6.20
2022-09-22T21:07:08.458Z,6.10
2022-09-22T21:09:53.986Z,6.10
2022-09-22T21:12:20.766Z,6.10
2022-09-22T21:14:48.714Z,6.10
2022-09-22T21:17:15.597Z,6.10
2022-09-22T21:19:43.238Z,6.00
2022-09-22T21:22:10.312Z,6.00
2022-09-22T21:24:37.198Z,6.00
2022-09-22T21:27:04.848Z,5.90
2022-09-22T21:29:32.052Z,5.90
2022-09-22T21:31:59.618Z,5.90
2022-09-22T21:34:26.599Z,5.80
2022-09-22T21:36:53.354Z,5.70
2022-09-22T21:39:21.385Z,5.70
2022-09-22T21:41:48.204Z,5.70
2022-09-22T21:44:15.069Z,5.60
2022-09-22T21:46:42.161Z,5.60
2022-09-22T21:49:10.624Z,5.60
2022-09-22T21:51:44.116Z,5.50
2022-09-22T21:54:18.071Z,5.50
2022-09-22T21:56:45.365Z,5.50
2022-09-22T21:59:13.093Z,5.40
2022-09-22T22:01:42.210Z,5.40
2022-09-22T22:04:10.284Z,5.40
2022-09-22T22:06:42.949Z,5.40
2022-09-22T22:09:18.245Z,5.30
2022-09-22T22:11:57.442Z,5.30
2022-09-22T22:14:32.573Z,5.20
2022-09-22T22:17:02.016Z,5.20
2022-09-22T22:19:29.827Z,5.10
2022-09-22T22:21:56.637Z,5.10
2022-09-22T22:24:27.534Z,5.10
2022-09-22T22:27:06.210Z,5.00
2022-09-22T22:29:38.385Z,5.00
2022-09-22T22:32:07.352Z,4.90
2022-09-22T22:34:34.209Z,4.90
2022-09-22T22:37:01.088Z,4.90
2022-09-22T22:39:28.310Z,4.90
2022-09-22T22:41:55.152Z,4.90
2022-09-22T22:44:22.501Z,4.80
2022-09-22T22:46:49.380Z,4.80
2022-09-22T22:49:16.212Z,4.80
2022-09-22T22:51:43.581Z,4.70
2022-09-22T22:54:11.814Z,4.70
2022-09-22T22:56:42.067Z,4.60
2022-09-22T22:59:10.919Z,4.60
2022-09-22T23:01:37.877Z,4.50
2022-09-22T23:04:07.641Z,4.50
2022-09-22T23:06:39.432Z,4.50
2022-09-22T23:09:11.081Z,4.50
2022-09-22T23:11:40.031Z,4.40
2022-09-22T23:14:11.673Z,4.40
2022-09-22T23:16:46.944Z,4.40
2022-09-22T23:19:17.551Z,4.40
2022-09-22T23:21:45.532Z,4.30
2022-09-22T23:24:19.026Z,4.30
2022-09-22T23:26:46.527Z,4.30
2022-09-22T23:29:14.210Z,4.30
2022-09-22T23:31:41.278Z,4.30
2022-09-22T23:34:08.114Z,4.20
2022-09-22T23:36:35.152Z,4.20
2022-09-22T23:39:06.167Z,4.20
2022-09-22T23:41:35.789Z,4.20
2022-09-22T23:44:06.514Z,4.20
2022-09-22T23:46:34.107Z,4.20
2022-09-22T23:49:01.207Z,4.10
2022-09-22T23:51:28.064Z,4.10
2022-09-22T23:53:56.118Z,4.10
2022-09-22T23:56:23.762Z,4.00
2022-09-22T23:58:52.095Z,4.00
